Time;durP1;ratioP1;P1;durP2;ratioP2;P2;SDS_P1;SDS_P2;PMS_P1;PMS_P2;Temp;Humidity;BMP_temperature;BMP_pressure;BME280_temperature;BME280_humidity;BME280_pressure;Samples;Min_cycle;Max_cycle;Signal;HPM_P1;HPM_P2
2022/09/15 00:01:15;;;;;;;7.65;2.35;;;14.60;94.50;;;;;;4967190;28;20050;-65
2022/09/15 00:03:41;;;;;;;6.82;2.80;;;14.60;94.40;;;;;;4959388;28;20117;-65
2022/09/15 00:06:08;;;;;;;8.90;2.55;;;14.50;94.60;;;;;;4971722;28;20101;-65
2022/09/15 00:08:34;;;;;;;9.13;2.38;;;14.50;94.50;;;;;;4965854;28;20066;-65
2022/09/15 00:11:13;;;;;;;6.53;2.30;;;14.50;94.40;;;;;;4969111;28;20074;-65
2022/09/15 00:13:39;;;;;;;7.85;2.50;;;14.50;94.60;;;;;;4946039;28;20043;-65
2022/09/15 00:16:06;;;;;;;12.43;2.72;;;14.50;94.50;;;;;;4976175;28;20057;-66
2022/09/15 00:18:32;;;;;;;6.32;3.05;;;14.40;94.70;;;;;;4958774;28;20142;-66
2022/09/15 00:20:58;;;;;;;5.97;2.45;;;14.30;94.80;;;;;;4967763;28;20382;-64
2022/09/15 00:23:24;;;;;;;10.38;2.78;;;14.30;95.20;;;;;;4976013;28;20485;-66
2022/09/15 00:25:51;;;;;;;8.50;2.58;;;14.30;95.10;;;;;;4967844;28;20042;-65
2022/09/15 00:28:19;;;;;;;8.65;2.53;;;14.30;94.90;;;;;;4973064;28;20070;-65
2022/09/15 00:30:52;;;;;;;8.90;2.60;;;14.20;94.90;;;;;;4969673;28;20105;-65
2022/09/15 00:33:18;;;;;;;8.18;2.75;;;14.20;95.00;;;;;;4968580;28;20435;-65
2022/09/15 00:35:47;;;;;;;6.97;2.90;;;14.20;95.10;;;;;;4972615;28;20053;-65
2022/09/15 00:38:13;;;;;;;9.90;3.63;;;14.10;95.10;;;;;;4966145;28;20050;-66
2022/09/15 00:40:55;;;;;;;11.45;4.03;;;14.20;95.00;;;;;;4985331;28;20060;-64
2022/09/15 00:43:47;;;;;;;9.52;4.20;;;14.10;95.10;;;;;;4980671;28;20046;-65
2022/09/15 00:46:13;;;;;;;8.45;3.42;;;14.00;95.30;;;;;;4954788;28;20112;-66
2022/09/15 00:48:50;;;;;;;11.02;3.15;;;14.00;95.70;;;;;;4969789;28;20067;-66
2022/09/15 00:51:18;;;;;;;6.78;2.92;;;14.00;95.40;;;;;;4973372;28;20047;-64
2022/09/15 00:53:44;;;;;;;8.80;3.40;;;14.00;95.30;;;;;;4981893;28;20721;-65
2022/09/15 00:56:11;;;;;;;9.75;4.22;;;14.00;95.40;;;;;;4973621;28;20046;-66
2022/09/15 00:58:55;;;;;;;10.13;4.00;;;13.90;95.60;;;;;;4965060;28;20061;-65
2022/09/15 01:01:22;;;;;;;9.15;3.47;;;13.80;95.60;;;;;;4971326;28;20125;-64
2022/09/15 01:03:48;;;;;;;11.45;4.78;;;13.80;95.60;;;;;;4953483;28;20054;-65
2022/09/15 01:06:17;;;;;;;8.73;4.20;;;13.80;95.70;;;;;;4969108;28;20046;-66
2022/09/15 01:08:48;;;;;;;10.60;4.10;;;13.80;95.80;;;;;;4971416;28;20046;-65
2022/09/15 01:11:15;;;;;;;14.07;4.30;;;13.70;95.80;;;;;;4977215;28;20078;-66
2022/09/15 01:13:43;;;;;;;8.48;4.30;;;13.80;96.00;;;;;;4965506;28;20061;-65
2022/09/15 01:16:30;;;;;;;15.43;4.95;;;13.80;95.80;;;;;;4973799;28;20058;-65
2022/09/15 01:19:51;;;;;;;10.32;4.40;;;13.70;95.90;;;;;;4964967;28;20121;-65
2022/09/15 01:22:20;;;;;;;12.45;4.47;;;13.70;95.80;;;;;;4977922;28;20057;-65
2022/09/15 01:25:13;;;;;;;9.88;4.75;;;13.70;95.90;;;;;;4974039;28;20050;-65
2022/09/15 01:28:02;;;;;;;10.75;4.72;;;13.80;95.70;;;;;;4969795;28;20042;-65
2022/09/15 01:30:32;;;;;;;8.57;4.85;;;13.80;95.60;;;;;;4970565;28;20404;-65
2022/09/15 01:33:05;;;;;;;16.70;5.65;;;13.80;95.80;;;;;;4963405;28;20490;-65
2022/09/15 01:35:39;;;;;;;11.68;5.82;;;13.70;96.10;;;;;;4984677;28;20494;-65
2022/09/15 01:38:30;;;;;;;12.70;5.63;;;13.70;96.20;;;;;;4977556;28;20098;-65
2022/09/15 01:40:58;;;;;;;16.35;6.38;;;13.70;96.40;;;;;;4971103;28;20528;-66
2022/09/15 01:43:24;;;;;;;11.98;5.28;;;13.60;96.30;;;;;;4975447;28;20061;-65
2022/09/15 01:45:50;;;;;;;10.15;5.28;;;13.60;96.40;;;;;;4971580;28;20046;-65
2022/09/15 01:48:18;;;;;;;10.85;5.65;;;13.60;96.50;;;;;;4977651;28;20057;-66
2022/09/15 01:50:49;;;;;;;12.90;5.65;;;13.60;96.30;;;;;;4965200;28;20046;-65
2022/09/15 01:53:16;;;;;;;14.02;5.18;;;13.70;96.10;;;;;;4970882;28;20050;-64
2022/09/15 01:55:58;;;;;;;15.30;6.73;;;13.70;96.00;;;;;;4942937;28;20481;-65
2022/09/15 01:58:24;;;;;;;12.73;6.78;;;13.70;96.10;;;;;;4961372;28;20062;-66
2022/09/15 02:01:03;;;;;;;15.75;7.03;;;13.70;95.90;;;;;;4971215;28;20070;-65
2022/09/15 02:03:55;;;;;;;16.58;6.63;;;13.70;95.90;;;;;;4969370;28;20925;-65
2022/09/15 02:06:32;;;;;;;12.45;6.95;;;13.70;95.80;;;;;;4955561;28;20452;-66
2022/09/15 02:09:30;;;;;;;12.68;7.15;;;13.70;95.80;;;;;;4966779;28;20353;-65
2022/09/15 02:12:32;;;;;;;14.43;7.50;;;13.70;95.60;;;;;;4977521;28;20468;-66
2022/09/15 02:15:23;;;;;;;14.20;7.60;;;13.70;95.70;;;;;;4968799;28;20779;-66
2022/09/15 02:17:52;;;;;;;16.20;8.13;;;13.70;95.80;;;;;;4946632;28;20539;-66
2022/09/15 02:20:30;;;;;;;14.10;8.35;;;13.70;95.90;;;;;;4954438;28;20046;-66
2022/09/15 02:22:56;;;;;;;14.85;8.75;;;13.60;96.10;;;;;;4976653;28;20081;-66
2022/09/15 02:25:27;;;;;;;15.82;9.10;;;13.60;96.20;;;;;;4971161;28;20137;-66
2022/09/15 02:27:54;;;;;;;13.05;7.90;;;13.60;96.10;;;;;;4940198;28;20054;-65
2022/09/15 02:30:20;;;;;;;16.92;8.80;;;13.50;96.10;;;;;;4980950;28;20093;-65
2022/09/15 02:32:59;;;;;;;11.30;8.60;;;13.50;96.30;;;;;;4974217;28;20085;-65
2022/09/15 02:35:27;;;;;;;18.42;10.18;;;13.50;96.40;;;;;;4970187;28;20042;-65
2022/09/15 02:37:53;;;;;;;;;;;13.50;96.40;;;;;;4966925;28;20321;-64
2022/09/15 02:40:19;;;;;;;19.40;11.27;;;13.40;96.60;;;;;;4972620;28;19914;-66
2022/09/15 02:42:57;;;;;;;19.05;9.05;;;13.40;96.60;;;;;;4972453;28;20073;-66
2022/09/15 02:45:23;;;;;;;17.95;10.77;;;13.40;96.70;;;;;;4966416;28;20468;-65
2022/09/15 02:47:49;;;;;;;16.40;10.60;;;13.40;96.70;;;;;;4953781;28;20478;-66
2022/09/15 02:50:19;;;;;;;16.10;9.77;;;13.40;96.80;;;;;;4955236;28;20050;-65
2022/09/15 02:52:45;;;;;;;15.50;11.10;;;13.40;96.80;;;;;;4955757;28;20116;-64
2022/09/15 02:55:11;;;;;;;16.45;11.25;;;13.30;96.80;;;;;;4947147;28;20550;-64
2022/09/15 02:57:36;;;;;;;20.33;10.30;;;13.40;96.70;;;;;;4976261;28;20144;-65
2022/09/15 03:00:13;;;;;;;17.92;11.48;;;13.40;96.60;;;;;;4950249;28;20058;-65
2022/09/15 03:02:57;;;;;;;20.70;11.70;;;13.40;96.60;;;;;;4950619;28;20511;-66
2022/09/15 03:05:24;;;;;;;19.45;11.85;;;13.40;96.50;;;;;;4965094;28;20132;-66
2022/09/15 03:07:50;;;;;;;17.70;12.47;;;13.40;96.40;;;;;;4953905;28;20508;-66
2022/09/15 03:10:34;;;;;;;23.83;13.68;;;13.40;96.70;;;;;;4954982;28;20161;-65
2022/09/15 03:13:00;;;;;;;22.63;14.27;;;13.30;97.00;;;;;;4956740;28;20495;-65
2022/09/15 03:15:26;;;;;;;26.02;14.77;;;13.20;97.10;;;;;;4942955;28;20055;-65
2022/09/15 03:17:52;;;;;;;24.00;14.93;;;13.20;97.50;;;;;;4949973;28;20047;-66
2022/09/15 03:20:19;;;;;;;22.27;13.45;;;13.20;97.30;;;;;;4934851;28;20046;-65
2022/09/15 03:22:45;;;;;;;24.83;15.70;;;13.20;97.20;;;;;;4949657;28;20051;-66
2022/09/15 03:25:12;;;;;;;21.80;15.90;;;13.20;97.20;;;;;;4968118;28;20290;-65
2022/09/15 03:27:38;;;;;;;23.95;14.98;;;13.10;97.60;;;;;;4965681;28;20531;-65
2022/09/15 03:30:06;;;;;;;24.50;14.93;;;13.00;97.70;;;;;;4970092;28;20071;-64
2022/09/15 03:32:32;;;;;;;25.45;16.27;;;13.10;97.60;;;;;;4966685;28;20507;-64
2022/09/15 03:34:59;;;;;;;26.17;16.08;;;13.10;97.70;;;;;;4955803;28;20078;-66
2022/09/15 03:37:25;;;;;;;26.75;18.42;;;13.10;97.70;;;;;;4955439;28;20100;-65
2022/09/15 03:39:50;;;;;;;27.70;16.83;;;13.00;97.60;;;;;;4965294;28;20742;-66
2022/09/15 03:42:16;;;;;;;27.83;18.42;;;13.10;97.40;;;;;;4965525;28;20106;-65
2022/09/15 03:44:42;;;;;;;28.13;16.90;;;13.00;97.90;;;;;;4955387;28;20043;-66
2022/09/15 03:47:07;;;;;;;32.88;18.00;;;13.00;97.70;;;;;;4974860;28;20047;-65
2022/09/15 03:49:33;;;;;;;26.42;18.02;;;13.00;97.70;;;;;;4970266;28;20043;-66
2022/09/15 03:51:59;;;;;;;33.78;19.77;;;13.00;97.70;;;;;;4941789;29;20421;-65
2022/09/15 03:54:26;;;;;;;30.20;17.45;;;13.00;97.50;;;;;;4943917;28;20057;-65
2022/09/15 03:56:52;;;;;;;32.72;18.83;;;13.00;97.70;;;;;;4971983;28;20043;-66
2022/09/15 03:59:18;;;;;;;30.45;19.73;;;13.00;97.70;;;;;;4970934;28;20583;-65
2022/09/15 04:01:44;;;;;;;25.27;17.58;;;12.90;97.70;;;;;;4970947;28;20046;-65
2022/09/15 04:04:10;;;;;;;30.10;19.35;;;12.90;97.70;;;;;;4950895;28;20047;-66
2022/09/15 04:06:38;;;;;;;28.58;17.25;;;12.90;97.80;;;;;;4967245;28;20102;-65
2022/09/15 04:09:04;;;;;;;27.85;18.08;;;12.80;98.00;;;;;;4955053;28;20051;-65
2022/09/15 04:11:30;;;;;;;31.80;19.48;;;12.90;98.20;;;;;;4957126;28;20047;-65
2022/09/15 04:13:55;;;;;;;32.22;19.20;;;12.80;98.20;;;;;;4957388;28;20527;-65
2022/09/15 04:16:22;;;;;;;31.17;19.63;;;12.80;98.40;;;;;;4960468;28;20093;-65
2022/09/15 04:18:49;;;;;;;30.98;19.75;;;12.80;98.40;;;;;;4975102;28;20054;-65
2022/09/15 04:21:17;;;;;;;30.65;21.10;;;12.80;98.60;;;;;;4957091;28;20051;-65
2022/09/15 04:23:43;;;;;;;35.72;21.13;;;12.80;98.60;;;;;;4968068;28;20130;-65
2022/09/15 04:26:13;;;;;;;31.08;20.83;;;12.70;98.70;;;;;;4966462;28;20138;-64
2022/09/15 04:28:38;;;;;;;37.88;21.05;;;12.70;98.80;;;;;;4944813;28;20051;-66
2022/09/15 04:31:09;;;;;;;33.97;20.20;;;12.80;98.70;;;;;;4950695;28;20065;-64
2022/09/15 04:33:35;;;;;;;32.17;19.55;;;12.80;98.80;;;;;;4956130;28;20142;-65
2022/09/15 04:36:03;;;;;;;34.70;20.73;;;12.80;98.60;;;;;;4974844;28;20533;-65
2022/09/15 04:38:30;;;;;;;36.33;20.95;;;12.80;98.90;;;;;;4934631;28;20058;-65
2022/09/15 04:40:56;;;;;;;31.48;19.17;;;12.70;98.90;;;;;;4972256;28;20055;-66
2022/09/15 04:43:22;;;;;;;28.83;19.25;;;12.80;98.90;;;;;;4964799;28;20065;-66
2022/09/15 04:45:49;;;;;;;33.25;20.98;;;12.70;98.90;;;;;;4968785;28;20054;-67
2022/09/15 04:48:15;;;;;;;30.70;18.90;;;12.70;98.90;;;;;;4967095;28;20046;-68
2022/09/15 04:50:41;;;;;;;33.92;20.27;;;12.80;98.90;;;;;;4951346;28;20050;-65
2022/09/15 04:53:07;;;;;;;31.90;21.27;;;12.80;98.80;;;;;;4959851;28;20053;-65
2022/09/15 04:55:33;;;;;;;29.02;19.27;;;12.80;98.80;;;;;;4960247;28;20055;-66
2022/09/15 04:58:01;;;;;;;38.25;21.70;;;12.70;99.00;;;;;;4965575;28;20046;-66
2022/09/15 05:00:30;;;;;;;30.38;19.10;;;12.70;98.90;;;;;;4967725;28;20058;-65
2022/09/15 05:02:57;;;;;;;32.97;19.73;;;12.80;98.90;;;;;;4953619;28;20057;-65
2022/09/15 05:05:25;;;;;;;26.98;17.15;;;12.80;99.00;;;;;;4971554;28;20051;-66
2022/09/15 05:07:51;;;;;;;34.30;20.45;;;12.70;98.90;;;;;;4974991;28;20058;-65
2022/09/15 05:10:19;;;;;;;29.13;17.88;;;12.80;98.80;;;;;;4976323;28;20042;-65
2022/09/15 05:12:45;;;;;;;30.80;19.35;;;12.80;98.70;;;;;;4960719;28;20043;-65
2022/09/15 05:15:12;;;;;;;29.05;19.80;;;12.80;98.80;;;;;;4938158;28;20058;-65
2022/09/15 05:17:40;;;;;;;30.42;18.63;;;12.80;98.70;;;;;;4970535;28;20157;-65
2022/09/15 05:20:06;;;;;;;29.95;18.20;;;12.80;98.70;;;;;;4952949;28;20555;-66
2022/09/15 05:22:32;;;;;;;31.02;19.17;;;12.80;98.70;;;;;;4946449;28;20054;-66
2022/09/15 05:24:57;;;;;;;31.67;19.27;;;12.70;98.90;;;;;;4959120;28;20039;-65
2022/09/15 05:27:23;;;;;;;33.33;20.08;;;12.80;98.80;;;;;;4953390;28;20542;-65
2022/09/15 05:29:49;;;;;;;33.05;18.85;;;12.90;98.70;;;;;;4961585;28;20058;-65
2022/09/15 05:32:15;;;;;;;30.67;20.08;;;12.90;98.60;;;;;;4960815;28;20043;-65
2022/09/15 05:34:40;;;;;;;31.13;19.55;;;12.90;98.60;;;;;;4941731;28;20039;-65
2022/09/15 05:37:06;;;;;;;31.67;20.73;;;13.00;98.60;;;;;;4958532;28;20058;-65
2022/09/15 05:39:32;;;;;;;31.92;21.33;;;12.90;98.50;;;;;;4957184;28;20412;-66
2022/09/15 05:41:58;;;;;;;29.35;18.08;;;12.90;98.60;;;;;;4946327;28;20090;-65
2022/09/15 05:44:24;;;;;;;31.80;20.42;;;12.90;98.60;;;;;;4965367;28;20598;-64
2022/09/15 05:46:51;;;;;;;29.05;18.63;;;13.00;98.60;;;;;;4955833;28;20042;-65
2022/09/15 05:49:16;;;;;;;31.65;19.60;;;12.90;98.50;;;;;;4977065;28;20187;-65
2022/09/15 05:51:43;;;;;;;28.27;18.33;;;12.90;98.40;;;;;;4952991;28;20125;-65
2022/09/15 05:54:09;;;;;;;27.52;17.67;;;13.00;98.50;;;;;;4973272;28;20059;-65
2022/09/15 05:56:35;;;;;;;34.65;19.60;;;13.00;98.40;;;;;;4963508;28;20043;-65
2022/09/15 05:59:01;;;;;;;27.17;17.20;;;13.00;98.50;;;;;;4965255;28;20129;-67
2022/09/15 06:01:29;;;;;;;29.92;17.52;;;13.10;98.40;;;;;;4963530;28;20074;-66
2022/09/15 06:03:55;;;;;;;26.85;17.45;;;13.10;98.30;;;;;;4953177;28;20465;-65
2022/09/15 06:06:21;;;;;;;28.50;18.08;;;13.10;98.20;;;;;;4929618;28;20154;-65
2022/09/15 06:08:49;;;;;;;26.90;17.50;;;13.10;98.20;;;;;;4946224;28;20047;-65
2022/09/15 06:11:16;;;;;;;27.47;18.17;;;13.10;98.00;;;;;;4972215;28;20047;-65
2022/09/15 06:13:42;;;;;;;24.33;16.40;;;13.20;98.20;;;;;;4960499;28;20050;-65
2022/09/15 06:16:09;;;;;;;26.83;17.10;;;13.20;98.10;;;;;;4975545;28;21102;-65
2022/09/15 06:18:36;;;;;;;26.83;16.73;;;13.20;98.20;;;;;;4963764;28;20417;-65
2022/09/15 06:21:08;;;;;;;26.45;16.90;;;13.10;98.20;;;;;;4967117;28;20383;-65
2022/09/15 06:23:34;;;;;;;25.05;17.10;;;13.20;98.10;;;;;;4949757;28;20050;-65
2022/09/15 06:26:13;;;;;;;27.05;16.83;;;13.20;98.20;;;;;;4940836;28;20480;-66
2022/09/15 06:28:41;;;;;;;26.73;16.35;;;13.20;98.00;;;;;;4959987;28;20058;-65
2022/09/15 06:31:11;;;;;;;28.40;17.00;;;13.20;98.00;;;;;;4971706;28;20050;-64
2022/09/15 06:33:40;;;;;;;24.45;16.08;;;13.30;98.20;;;;;;4942345;28;20046;-65
2022/09/15 06:36:09;;;;;;;26.75;16.73;;;13.30;98.00;;;;;;4967104;28;20105;-65
2022/09/15 06:38:35;;;;;;;;;;;13.30;97.90;;;;;;4969040;28;20073;-65
2022/09/15 06:41:00;;;;;;;27.10;16.05;;;13.30;97.90;;;;;;4952218;28;20318;-66
2022/09/15 06:43:26;;;;;;;26.65;16.02;;;13.30;98.00;;;;;;4968189;28;20108;-65
2022/09/15 06:45:52;;;;;;;25.55;15.98;;;13.40;98.20;;;;;;4963583;28;20055;-65
2022/09/15 06:48:18;;;;;;;22.83;14.57;;;13.40;98.20;;;;;;4967385;28;21065;-65
2022/09/15 06:50:43;;;;;;;23.80;15.27;;;13.40;98.20;;;;;;4946597;28;20047;-65
2022/09/15 06:53:09;;;;;;;24.63;14.60;;;13.50;97.90;;;;;;4961045;28;20054;-65
2022/09/15 06:55:35;;;;;;;21.42;13.95;;;13.50;97.80;;;;;;4953216;28;20066;-66
2022/09/15 06:58:01;;;;;;;26.35;14.88;;;13.50;97.90;;;;;;4952355;28;20051;-65
2022/09/15 07:00:28;;;;;;;22.00;13.35;;;13.60;98.00;;;;;;4928912;28;20135;-66
2022/09/15 07:02:54;;;;;;;21.85;14.20;;;13.60;98.20;;;;;;4958517;28;20070;-65
2022/09/15 07:05:20;;;;;;;24.15;13.60;;;13.60;98.10;;;;;;4953824;28;20039;-66
2022/09/15 07:07:46;;;;;;;22.90;12.50;;;13.60;98.00;;;;;;4953355;28;20513;-72
2022/09/15 07:10:11;;;;;;;27.33;12.45;;;13.70;97.90;;;;;;4945665;28;20082;-69
2022/09/15 07:12:37;;;;;;;17.30;10.77;;;13.60;98.00;;;;;;4950502;28;20130;-68
2022/09/15 07:15:04;;;;;;;17.60;12.10;;;13.70;98.00;;;;;;4966582;28;20055;-69
2022/09/15 07:17:29;;;;;;;20.20;11.23;;;13.70;98.00;;;;;;4962223;28;20043;-68
2022/09/15 07:19:55;;;;;;;17.50;9.52;;;13.70;98.00;;;;;;4972590;28;20060;-69
2022/09/15 07:22:21;;;;;;;15.82;9.20;;;13.70;97.90;;;;;;4964639;28;20062;-68
2022/09/15 07:24:46;;;;;;;14.23;8.23;;;13.70;97.90;;;;;;4975807;28;20636;-69
2022/09/15 07:27:12;;;;;;;15.00;8.15;;;13.80;97.70;;;;;;4949554;28;20125;-69
2022/09/15 07:29:41;;;;;;;11.70;7.82;;;13.80;97.70;;;;;;4967263;28;20062;-68
2022/09/15 07:32:07;;;;;;;12.10;7.38;;;13.80;97.70;;;;;;4950441;28;20477;-69
2022/09/15 07:34:34;;;;;;;13.68;7.40;;;13.90;97.60;;;;;;4964644;28;20065;-69
2022/09/15 07:36:59;;;;;;;14.27;6.90;;;13.90;97.70;;;;;;4965292;28;20364;-69
2022/09/15 07:39:25;;;;;;;11.68;6.30;;;13.90;97.40;;;;;;4970015;28;20153;-69
2022/09/15 07:41:51;;;;;;;14.30;6.50;;;14.00;97.40;;;;;;4953901;28;20746;-68
2022/09/15 07:44:16;;;;;;;14.52;7.40;;;14.00;97.30;;;;;;4955560;28;20509;-68
2022/09/15 07:46:42;;;;;;;15.43;7.18;;;14.10;97.10;;;;;;4951258;28;20086;-68
2022/09/15 07:49:09;;;;;;;11.63;5.57;;;14.10;97.20;;;;;;4950581;28;20047;-69
2022/09/15 07:51:35;;;;;;;11.88;5.88;;;14.10;97.20;;;;;;4951990;28;20363;-69
2022/09/15 07:54:00;;;;;;;13.73;6.65;;;14.10;97.20;;;;;;4933680;28;20472;-69
2022/09/15 07:56:26;;;;;;;11.77;6.28;;;14.10;97.00;;;;;;4965029;28;20055;-71
2022/09/15 07:58:53;;;;;;;9.75;5.35;;;14.20;97.10;;;;;;4951509;28;20062;-69
2022/09/15 08:01:19;;;;;;;12.55;4.72;;;14.30;97.40;;;;;;4935684;28;20086;-70
2022/09/15 08:03:47;;;;;;;13.73;5.63;;;14.50;96.60;;;;;;4956614;28;20054;-68
2022/09/15 08:06:13;;;;;;;14.40;6.18;;;14.70;96.20;;;;;;4922445;28;20055;-70
2022/09/15 08:08:40;;;;;;;12.63;5.93;;;14.60;96.00;;;;;;4947081;28;20042;-70
2022/09/15 08:11:09;;;;;;;13.88;5.60;;;14.50;96.10;;;;;;4962701;28;20047;-69
2022/09/15 08:13:35;;;;;;;11.93;6.15;;;14.50;96.40;;;;;;4973378;28;20039;-69
2022/09/15 08:16:11;;;;;;;12.82;5.63;;;14.40;96.30;;;;;;4958761;28;20051;-69
2022/09/15 08:18:37;;;;;;;9.82;4.97;;;14.50;96.60;;;;;;4942298;28;20046;-69
2022/09/15 08:21:09;;;;;;;9.43;5.28;;;14.60;96.60;;;;;;4937042;28;20500;-68
2022/09/15 08:23:35;;;;;;;10.73;5.20;;;14.70;96.30;;;;;;4940872;28;20055;-69
2022/09/15 08:26:03;;;;;;;12.82;5.50;;;14.90;96.00;;;;;;4936177;28;20493;-69
2022/09/15 08:28:29;;;;;;;10.93;4.65;;;15.00;95.70;;;;;;4957974;28;20105;-70
2022/09/15 08:31:03;;;;;;;11.65;6.28;;;15.10;95.60;;;;;;4968692;28;20376;-69
2022/09/15 08:33:29;;;;;;;14.70;5.55;;;15.00;95.00;;;;;;4952939;28;20155;-69
2022/09/15 08:36:03;;;;;;;14.45;6.30;;;15.10;95.70;;;;;;4942383;28;20071;-69
2022/09/15 08:38:29;;;;;;;15.13;6.65;;;15.00;95.50;;;;;;4947106;28;20086;-68
2022/09/15 08:41:03;;;;;;;14.80;6.30;;;14.90;95.70;;;;;;4966099;28;20529;-68
2022/09/15 08:43:41;;;;;;;11.50;5.80;;;14.90;95.50;;;;;;4948723;28;20137;-67
2022/09/15 08:46:10;;;;;;;13.70;5.78;;;15.10;95.40;;;;;;4940019;28;20109;-68
2022/09/15 08:48:40;;;;;;;14.90;6.25;;;15.20;95.20;;;;;;4935832;29;20499;-69
2022/09/15 08:51:09;;;;;;;12.43;5.53;;;15.20;95.00;;;;;;4955076;28;20047;-68
2022/09/15 08:53:36;;;;;;;11.57;5.22;;;15.20;94.80;;;;;;4955245;28;20043;-69
2022/09/15 08:56:04;;;;;;;9.60;4.88;;;15.30;94.00;;;;;;4953115;28;20656;-68
2022/09/15 08:58:33;;;;;;;9.07;5.10;;;15.20;94.50;;;;;;4949456;28;20059;-68
2022/09/15 09:01:01;;;;;;;;;;;15.30;94.30;;;;;;4973519;28;20205;-69
2022/09/15 09:03:34;;;;;;;11.68;4.85;;;15.40;93.50;;;;;;4976280;28;20016;-69
2022/09/15 09:06:20;;;;;;;12.85;4.22;;;15.30;93.50;;;;;;4966436;28;20038;-69
2022/09/15 09:08:55;;;;;;;9.40;4.25;;;15.40;93.90;;;;;;4946963;28;20070;-69
2022/09/15 09:11:39;;;;;;;8.98;4.10;;;15.40;93.70;;;;;;4962765;28;20046;-70
2022/09/15 09:14:05;;;;;;;11.07;4.13;;;15.40;93.50;;;;;;4978024;28;20042;-70
2022/09/15 09:16:55;;;;;;;13.43;4.10;;;15.50;93.30;;;;;;4960107;28;20050;-69
2022/09/15 09:19:24;;;;;;;14.40;4.18;;;15.60;93.30;;;;;;4965981;28;20053;-69
2022/09/15 09:22:00;;;;;;;11.40;4.40;;;15.60;93.30;;;;;;4971567;28;20053;-68
2022/09/15 09:24:29;;;;;;;7.07;3.10;;;15.80;93.00;;;;;;4951406;28;20095;-70
2022/09/15 09:26:55;;;;;;;8.98;3.42;;;15.70;92.20;;;;;;4968329;28;20043;-69
2022/09/15 09:29:29;;;;;;;14.77;3.97;;;15.60;91.80;;;;;;4962791;28;20506;-69
2022/09/15 09:31:54;;;;;;;9.25;3.55;;;15.70;92.50;;;;;;4972318;28;20038;-68
2022/09/15 09:34:28;;;;;;;10.45;3.40;;;15.80;92.20;;;;;;4965640;28;20050;-70
2022/09/15 09:36:57;;;;;;;8.85;3.00;;;15.90;92.00;;;;;;4977506;28;20579;-69
2022/09/15 09:39:22;;;;;;;8.63;3.58;;;15.90;91.70;;;;;;4952686;28;20133;-69
2022/09/15 09:41:49;;;;;;;7.68;2.90;;;15.90;91.00;;;;;;4953391;28;20193;-68
2022/09/15 09:44:15;;;;;;;6.85;2.25;;;15.90;91.40;;;;;;4963275;28;20050;-68
2022/09/15 09:46:42;;;;;;;9.43;2.42;;;15.90;90.80;;;;;;4935779;28;20105;-69
2022/09/15 09:49:24;;;;;;;7.13;1.73;;;16.00;90.90;;;;;;4971954;28;20053;-69
2022/09/15 09:52:01;;;;;;;9.90;2.10;;;16.00;89.40;;;;;;4952930;28;20391;-70
2022/09/15 09:54:28;;;;;;;7.45;1.48;;;16.00;90.20;;;;;;4979593;28;20050;-69
2022/09/15 09:57:27;;;;;;;9.90;1.60;;;16.20;88.40;;;;;;4960572;28;20117;-69
2022/09/15 09:59:53;;;;;;;6.75;1.40;;;16.20;86.90;;;;;;4957225;28;20063;-69
2022/09/15 10:02:20;;;;;;;6.00;1.80;;;16.20;84.80;;;;;;4951716;28;20074;-68
2022/09/15 10:04:52;;;;;;;6.70;1.73;;;16.20;85.80;;;;;;4971109;28;20052;-69
2022/09/15 10:07:28;;;;;;;10.60;1.67;;;16.40;84.70;;;;;;4966563;28;20392;-69
2022/09/15 10:09:57;;;;;;;6.82;1.50;;;16.50;82.80;;;;;;4951931;28;20096;-69
2022/09/15 10:12:28;;;;;;;;;;;16.90;83.50;;;;;;4960430;28;20413;-69
2022/09/15 10:14:55;;;;;;;4.78;1.40;;;17.00;82.30;;;;;;4974535;28;19918;-70
2022/09/15 10:17:22;;;;;;;6.90;1.52;;;16.80;79.70;;;;;;4933316;28;20053;-69
2022/09/15 10:19:53;;;;;;;7.18;1.63;;;16.70;81.50;;;;;;4981991;28;20112;-70
2022/09/15 10:22:36;;;;;;;8.32;1.45;;;16.70;82.60;;;;;;4964305;28;20112;-68
2022/09/15 10:25:25;;;;;;;7.53;1.50;;;16.70;82.60;;;;;;4972373;28;20050;-68
2022/09/15 10:28:15;;;;;;;10.15;1.38;;;16.80;81.20;;;;;;4981923;28;20114;-68
2022/09/15 10:31:01;;;;;;;9.48;1.50;;;16.70;80.90;;;;;;4971662;28;20038;-68
2022/09/15 10:33:28;;;;;;;7.43;1.42;;;16.70;80.80;;;;;;4974551;28;20046;-68
2022/09/15 10:35:58;;;;;;;7.60;1.45;;;16.90;80.80;;;;;;4979338;28;20060;-68
2022/09/15 10:38:37;;;;;;;6.40;1.73;;;17.30;79.90;;;;;;4962255;28;20193;-68
2022/09/15 10:41:12;;;;;;;8.52;1.55;;;17.50;77.40;;;;;;4984838;28;20057;-68
2022/09/15 10:44:05;;;;;;;9.57;1.20;;;17.50;75.50;;;;;;4971069;28;20065;-68
2022/09/15 10:46:43;;;;;;;7.72;1.42;;;17.50;74.00;;;;;;4977597;28;20038;-67
2022/09/15 10:49:52;;;;;;;5.88;0.88;;;17.40;72.90;;;;;;4959376;28;20424;-68
2022/09/15 10:52:42;;;;;;;5.45;1.10;;;17.20;73.10;;;;;;4974017;28;20054;-67
2022/09/15 10:55:23;;;;;;;4.47;1.20;;;17.10;73.60;;;;;;4969111;28;20046;-67
2022/09/15 10:58:07;;;;;;;5.30;1.38;;;16.90;74.10;;;;;;4987419;28;20789;-67
2022/09/15 11:00:43;;;;;;;6.13;1.27;;;17.00;73.90;;;;;;4979464;28;20128;-68
2022/09/15 11:03:27;;;;;;;8.65;1.20;;;17.10;73.80;;;;;;4957141;28;20548;-68
2022/09/15 11:06:00;;;;;;;4.88;1.20;;;17.20;75.20;;;;;;4976224;28;20046;-67
2022/09/15 11:08:35;;;;;;;6.65;1.17;;;17.00;73.80;;;;;;4967073;28;20046;-69
2022/09/15 11:11:13;;;;;;;8.18;1.10;;;17.10;74.40;;;;;;4970387;28;20043;-67
2022/09/15 11:14:07;;;;;;;4.70;0.98;;;16.90;72.00;;;;;;4959063;28;20055;-68
2022/09/15 11:16:59;;;;;;;5.25;1.35;;;16.80;73.50;;;;;;4959843;28;20050;-67
2022/09/15 11:19:41;;;;;;;6.40;1.10;;;16.70;73.70;;;;;;4971949;28;20093;-67
2022/09/15 11:22:24;;;;;;;3.75;0.98;;;16.70;74.30;;;;;;4940574;28;20046;-66
2022/09/15 11:25:19;;;;;;;4.75;1.15;;;16.70;75.30;;;;;;4976500;28;20046;-67
2022/09/15 11:27:52;;;;;;;6.28;1.08;;;16.70;75.80;;;;;;4965757;28;20046;-67
2022/09/15 11:30:23;;;;;;;5.20;1.05;;;16.60;73.80;;;;;;4970031;28;20042;-68
2022/09/15 11:33:20;;;;;;;5.60;1.00;;;16.50;74.50;;;;;;4944891;28;20054;-69
2022/09/15 11:35:52;;;;;;;7.07;1.27;;;16.70;75.00;;;;;;4943337;28;20049;-68
2022/09/15 11:38:47;;;;;;;6.80;1.00;;;16.90;75.00;;;;;;4973387;28;21311;-68
2022/09/15 11:41:13;;;;;;;6.45;1.15;;;17.20;74.20;;;;;;4970948;28;20062;-68
2022/09/15 11:43:52;;;;;;;5.05;1.08;;;17.30;73.70;;;;;;4961353;28;20612;-67
2022/09/15 11:46:22;;;;;;;6.68;1.20;;;17.40;75.10;;;;;;4969070;28;20054;-68
2022/09/15 11:48:58;;;;;;;11.20;1.65;;;17.50;73.80;;;;;;4939097;28;20054;-68
2022/09/15 11:51:29;;;;;;;6.25;1.33;;;17.30;73.10;;;;;;4974637;28;20122;-68
2022/09/15 11:54:01;;;;;;;6.47;1.30;;;17.10;73.50;;;;;;4967957;28;20046;-68
2022/09/15 11:56:31;;;;;;;5.50;1.15;;;17.00;74.20;;;;;;4966835;28;20053;-68
2022/09/15 11:59:10;;;;;;;7.63;1.17;;;16.90;74.30;;;;;;4961901;28;20131;-68
2022/09/15 12:02:01;;;;;;;9.02;1.83;;;16.90;74.40;;;;;;4965194;28;20062;-67
2022/09/15 12:04:37;;;;;;;5.28;1.05;;;16.70;73.90;;;;;;4965236;28;20479;-68
2022/09/15 12:07:05;;;;;;;6.15;1.10;;;16.70;75.20;;;;;;4938232;28;20619;-67
2022/09/15 12:09:30;;;;;;;8.38;1.02;;;16.70;75.40;;;;;;4962657;28;20043;-68
2022/09/15 12:11:59;;;;;;;7.03;1.17;;;16.60;75.20;;;;;;4974249;28;20058;-66
2022/09/15 12:14:37;;;;;;;5.22;1.15;;;16.60;75.60;;;;;;4965890;28;20582;-67
2022/09/15 12:17:04;;;;;;;5.40;0.90;;;16.60;75.50;;;;;;4964536;28;20080;-67
2022/09/15 12:19:32;;;;;;;5.60;1.40;;;16.70;75.10;;;;;;4967080;28;20058;-68
2022/09/15 12:22:22;;;;;;;5.07;1.20;;;16.90;73.30;;;;;;4959290;28;20575;-66
2022/09/15 12:25:04;;;;;;;6.90;1.50;;;17.10;73.60;;;;;;4958366;28;20061;-68
2022/09/15 12:27:31;;;;;;;6.63;1.08;;;17.10;71.10;;;;;;4963467;28;20047;-67
2022/09/15 12:30:00;;;;;;;5.15;1.10;;;17.40;72.30;;;;;;4971242;28;20122;-68
2022/09/15 12:32:29;;;;;;;3.60;1.02;;;17.70;68.60;;;;;;4947220;28;20127;-67
2022/09/15 12:35:14;;;;;;;7.70;1.20;;;17.90;68.90;;;;;;4975838;28;20054;-67
2022/09/15 12:37:56;;;;;;;4.55;1.00;;;17.90;68.30;;;;;;4967142;28;20035;-68
2022/09/15 12:40:25;;;;;;;4.57;1.10;;;17.70;70.30;;;;;;4972077;28;20058;-68
2022/09/15 12:42:52;;;;;;;6.28;1.08;;;17.60;70.90;;;;;;4960343;28;20046;-67
2022/09/15 12:45:30;;;;;;;5.35;1.10;;;17.50;70.90;;;;;;4966539;28;20043;-68
2022/09/15 12:48:04;;;;;;;12.02;2.15;;;17.40;72.00;;;;;;4952987;28;20047;-68
2022/09/15 12:50:31;;;;;;;12.93;5.28;;;17.30;72.10;;;;;;4962208;28;20046;-67
2022/09/15 12:53:02;;;;;;;9.27;2.90;;;17.10;73.10;;;;;;4953064;28;20043;-68
2022/09/15 12:55:31;;;;;;;8.68;1.92;;;17.10;73.50;;;;;;4949478;28;20134;-68
2022/09/15 12:58:00;;;;;;;8.48;1.50;;;17.10;74.20;;;;;;4948315;28;20699;-68